sensor_id;sensor_type;location;lat;lon;timestamp;temperature;humidity
51867;DHT22;52862;52.504;13.480;2023-07-09T00:00:17;21.80;82.50
51867;DHT22;52862;52.504;13.480;2023-07-09T00:02:45;21.70;82.70
51867;DHT22;52862;52.504;13.480;2023-07-09T00:05:14;21.90;83.70
51867;DHT22;52862;52.504;13.480;2023-07-09T00:07:42;21.60;83.10
51867;DHT22;52862;52.504;13.480;2023-07-09T00:10:18;21.80;82.70
51867;DHT22;52862;52.504;13.480;2023-07-09T00:12:45;21.80;83.60
51867;DHT22;52862;52.504;13.480;2023-07-09T00:15:13;21.70;83.90
51867;DHT22;52862;52.504;13.480;2023-07-09T00:17:42;21.70;83.80
51867;DHT22;52862;52.504;13.480;2023-07-09T00:20:12;21.60;84.00
51867;DHT22;52862;52.504;13.480;2023-07-09T00:22:40;21.70;83.80
51867;DHT22;52862;52.504;13.480;2023-07-09T00:25:09;21.80;84.80
51867;DHT22;52862;52.504;13.480;2023-07-09T00:27:40;21.60;84.10
51867;DHT22;52862;52.504;13.480;2023-07-09T00:30:15;21.60;84.30
51867;DHT22;52862;52.504;13.480;2023-07-09T00:32:42;21.60;84.60
51867;DHT22;52862;52.504;13.480;2023-07-09T00:35:10;21.70;85.10
51867;DHT22;52862;52.504;13.480;2023-07-09T00:37:40;21.60;85.20
51867;DHT22;52862;52.504;13.480;2023-07-09T00:40:12;21.60;85.40
51867;DHT22;52862;52.504;13.480;2023-07-09T00:42:44;21.40;85.20
51867;DHT22;52862;52.504;13.480;2023-07-09T00:45:18;21.60;85.50
51867;DHT22;52862;52.504;13.480;2023-07-09T00:47:48;21.50;86.30
51867;DHT22;52862;52.504;13.480;2023-07-09T00:50:26;21.40;86.60
51867;DHT22;52862;52.504;13.480;2023-07-09T00:52:56;21.20;86.80
51867;DHT22;52862;52.504;13.480;2023-07-09T00:55:28;21.40;87.40
51867;DHT22;52862;52.504;13.480;2023-07-09T00:57:59;21.10;87.10
51867;DHT22;52862;52.504;13.480;2023-07-09T01:00:32;21.30;87.60
51867;DHT22;52862;52.504;13.480;2023-07-09T01:03:02;21.20;87.90
51867;DHT22;52862;52.504;13.480;2023-07-09T01:05:30;21.20;88.10
51867;DHT22;52862;52.504;13.480;2023-07-09T01:07:58;21.00;88.70
51867;DHT22;52862;52.504;13.480;2023-07-09T01:10:24;21.20;88.90
51867;DHT22;52862;52.504;13.480;2023-07-09T01:12:51;21.20;89.40
51867;DHT22;52862;52.504;13.480;2023-07-09T01:15:18;21.20;88.20
51867;DHT22;52862;52.504;13.480;2023-07-09T01:17:46;21.20;88.50
51867;DHT22;52862;52.504;13.480;2023-07-09T01:20:18;21.10;89.20
51867;DHT22;52862;52.504;13.480;2023-07-09T01:22:49;21.10;89.40
51867;DHT22;52862;52.504;13.480;2023-07-09T01:25:16;21.10;89.40
51867;DHT22;52862;52.504;13.480;2023-07-09T01:27:45;21.00;90.00
51867;DHT22;52862;52.504;13.480;2023-07-09T01:30:16;20.70;90.00
51867;DHT22;52862;52.504;13.480;2023-07-09T01:32:44;20.90;90.30
51867;DHT22;52862;52.504;13.480;2023-07-09T01:35:13;20.80;90.30
51867;DHT22;52862;52.504;13.480;2023-07-09T01:37:41;20.80;90.50
51867;DHT22;52862;52.504;13.480;2023-07-09T01:40:11;20.70;90.70
51867;DHT22;52862;52.504;13.480;2023-07-09T01:42:57;20.90;90.70
51867;DHT22;52862;52.504;13.480;2023-07-09T01:45:25;20.50;90.90
51867;DHT22;52862;52.504;13.480;2023-07-09T01:47:52;19.90;95.20
51867;DHT22;52862;52.504;13.480;2023-07-09T01:50:20;20.60;91.20
51867;DHT22;52862;52.504;13.480;2023-07-09T01:52:46;20.80;91.10
51867;DHT22;52862;52.504;13.480;2023-07-09T01:55:16;20.60;91.20
51867;DHT22;52862;52.504;13.480;2023-07-09T01:57:44;20.60;91.50
51867;DHT22;52862;52.504;13.480;2023-07-09T02:00:14;20.60;91.70
51867;DHT22;52862;52.504;13.480;2023-07-09T02:02:41;20.60;92.00
51867;DHT22;52862;52.504;13.480;2023-07-09T02:05:10;20.50;92.10
51867;DHT22;52862;52.504;13.480;2023-07-09T02:07:37;20.60;92.50
51867;DHT22;52862;52.504;13.480;2023-07-09T02:10:04;20.60;92.60
51867;DHT22;52862;52.504;13.480;2023-07-09T02:12:32;20.70;97.00
51867;DHT22;52862;52.504;13.480;2023-07-09T02:14:59;20.70;92.70
51867;DHT22;52862;52.504;13.480;2023-07-09T02:17:26;20.60;93.30
51867;DHT22;52862;52.504;13.480;2023-07-09T02:19:52;20.20;97.50
51867;DHT22;52862;52.504;13.480;2023-07-09T02:22:19;20.40;93.00
51867;DHT22;52862;52.504;13.480;2023-07-09T02:24:46;20.30;98.10
51867;DHT22;52862;52.504;13.480;2023-07-09T02:27:16;20.40;98.60
51867;DHT22;52862;52.504;13.480;2023-07-09T02:29:43;20.40;98.40
51867;DHT22;52862;52.504;13.480;2023-07-09T02:32:13;19.40;98.50
51867;DHT22;52862;52.504;13.480;2023-07-09T02:34:43;20.20;94.40
51867;DHT22;52862;52.504;13.480;2023-07-09T02:37:09;20.20;94.40
51867;DHT22;52862;52.504;13.480;2023-07-09T02:39:36;20.20;94.50
51867;DHT22;52862;52.504;13.480;2023-07-09T02:42:04;20.30;94.60
51867;DHT22;52862;52.504;13.480;2023-07-09T02:44:30;20.00;99.10
51867;DHT22;52862;52.504;13.480;2023-07-09T02:46:58;20.10;99.40
51867;DHT22;52862;52.504;13.480;2023-07-09T02:49:25;20.10;95.30
51867;DHT22;52862;52.504;13.480;2023-07-09T02:51:51;20.00;99.50
51867;DHT22;52862;52.504;13.480;2023-07-09T02:54:18;19.90;99.90
51867;DHT22;52862;52.504;13.480;2023-07-09T02:56:45;20.00;95.80
51867;DHT22;52862;52.504;13.480;2023-07-09T02:59:12;20.10;95.90
51867;DHT22;52862;52.504;13.480;2023-07-09T03:01:39;20.10;95.60
51867;DHT22;52862;52.504;13.480;2023-07-09T03:04:06;20.10;95.60
51867;DHT22;52862;52.504;13.480;2023-07-09T03:06:35;20.10;95.90
51867;DHT22;52862;52.504;13.480;2023-07-09T03:09:03;20.10;96.00
51867;DHT22;52862;52.504;13.480;2023-07-09T03:11:32;20.10;95.90
51867;DHT22;52862;52.504;13.480;2023-07-09T03:13:59;20.00;96.30
51867;DHT22;52862;52.504;13.480;2023-07-09T03:16:27;20.00;96.40
51867;DHT22;52862;52.504;13.480;2023-07-09T03:18:55;20.40;99.90
51867;DHT22;52862;52.504;13.480;2023-07-09T03:21:23;20.00;96.60
51867;DHT22;52862;52.504;13.480;2023-07-09T03:23:50;20.00;96.80
51867;DHT22;52862;52.504;13.480;2023-07-09T03:26:17;19.90;96.90
51867;DHT22;52862;52.504;13.480;2023-07-09T03:28:44;20.00;99.90
51867;DHT22;52862;52.504;13.480;2023-07-09T03:31:11;19.40;99.90
51867;DHT22;52862;52.504;13.480;2023-07-09T03:33:38;20.40;99.90
51867;DHT22;52862;52.504;13.480;2023-07-09T03:36:05;20.10;98.20
51867;DHT22;52862;52.504;13.480;2023-07-09T03:38:33;20.00;98.10
51867;DHT22;52862;52.504;13.480;2023-07-09T03:41:00;20.00;98.50
51867;DHT22;52862;52.504;13.480;2023-07-09T03:43:26;20.00;98.50
51867;DHT22;52862;52.504;13.480;2023-07-09T03:45:53;20.00;99.00
51867;DHT22;52862;52.504;13.480;2023-07-09T03:48:20;20.10;99.00
51867;DHT22;52862;52.504;13.480;2023-07-09T03:50:48;20.10;98.80
51867;DHT22;52862;52.504;13.480;2023-07-09T03:53:16;20.20;99.00
51867;DHT22;52862;52.504;13.480;2023-07-09T03:55:45;20.20;98.70
51867;DHT22;52862;52.504;13.480;2023-07-09T03:58:12;20.20;98.50
51867;DHT22;52862;52.504;13.480;2023-07-09T04:00:39;20.20;98.00
51867;DHT22;52862;52.504;13.480;2023-07-09T04:03:07;20.40;97.40
51867;DHT22;52862;52.504;13.480;2023-07-09T04:05:34;20.40;97.40
51867;DHT22;52862;52.504;13.480;2023-07-09T04:08:01;20.50;97.10
51867;DHT22;52862;52.504;13.480;2023-07-09T04:10:28;20.60;97.10
51867;DHT22;52862;52.504;13.480;2023-07-09T04:12:56;20.90;99.90
51867;DHT22;52862;52.504;13.480;2023-07-09T04:15:23;20.70;97.50
51867;DHT22;52862;52.504;13.480;2023-07-09T04:17:50;20.80;96.80
51867;DHT22;52862;52.504;13.480;2023-07-09T04:20:18;20.80;97.00
51867;DHT22;52862;52.504;13.480;2023-07-09T04:22:45;20.70;99.90
51867;DHT22;52862;52.504;13.480;2023-07-09T04:25:12;21.00;97.20
51867;DHT22;52862;52.504;13.480;2023-07-09T04:27:39;21.00;96.90
51867;DHT22;52862;52.504;13.480;2023-07-09T04:30:09;21.10;96.50
51867;DHT22;52862;52.504;13.480;2023-07-09T04:32:37;21.20;96.80
51867;DHT22;52862;52.504;13.480;2023-07-09T04:35:04;21.20;96.90
51867;DHT22;52862;52.504;13.480;2023-07-09T04:37:32;20.80;96.30
51867;DHT22;52862;52.504;13.480;2023-07-09T04:39:59;21.50;96.60
51867;DHT22;52862;52.504;13.480;2023-07-09T04:42:26;21.10;96.80
51867;DHT22;52862;52.504;13.480;2023-07-09T04:44:53;21.60;96.50
51867;DHT22;52862;52.504;13.480;2023-07-09T04:47:20;21.70;96.40
51867;DHT22;52862;52.504;13.480;2023-07-09T04:49:47;21.80;96.10
51867;DHT22;52862;52.504;13.480;2023-07-09T04:52:14;21.80;95.80
51867;DHT22;52862;52.504;13.480;2023-07-09T04:54:42;21.90;95.70
51867;DHT22;52862;52.504;13.480;2023-07-09T04:57:09;22.00;95.60
51867;DHT22;52862;52.504;13.480;2023-07-09T04:59:36;22.00;94.50
51867;DHT22;52862;52.504;13.480;2023-07-09T05:02:03;22.10;94.00
51867;DHT22;52862;52.504;13.480;2023-07-09T05:04:31;22.30;93.80
51867;DHT22;52862;52.504;13.480;2023-07-09T05:06:58;22.40;93.50
51867;DHT22;52862;52.504;13.480;2023-07-09T05:09:25;22.30;92.90
51867;DHT22;52862;52.504;13.480;2023-07-09T05:11:52;22.50;93.20
51867;DHT22;52862;52.504;13.480;2023-07-09T05:14:19;22.60;92.90
51867;DHT22;52862;52.504;13.480;2023-07-09T05:16:46;22.70;92.50
51867;DHT22;52862;52.504;13.480;2023-07-09T05:19:13;22.80;92.60
51867;DHT22;52862;52.504;13.480;2023-07-09T05:21:40;22.90;92.00
51867;DHT22;52862;52.504;13.480;2023-07-09T05:24:07;23.10;91.60
51867;DHT22;52862;52.504;13.480;2023-07-09T05:26:34;23.10;91.80
51867;DHT22;52862;52.504;13.480;2023-07-09T05:29:02;22.20;91.00
51867;DHT22;52862;52.504;13.480;2023-07-09T05:31:30;23.30;91.10
51867;DHT22;52862;52.504;13.480;2023-07-09T05:33:57;23.20;91.10
51867;DHT22;52862;52.504;13.480;2023-07-09T05:36:26;23.50;91.10
51867;DHT22;52862;52.504;13.480;2023-07-09T05:38:54;23.60;91.40
51867;DHT22;52862;52.504;13.480;2023-07-09T05:41:21;23.70;91.70
51867;DHT22;52862;52.504;13.480;2023-07-09T05:43:50;23.80;91.60
51867;DHT22;52862;52.504;13.480;2023-07-09T05:46:18;23.80;91.80
51867;DHT22;52862;52.504;13.480;2023-07-09T05:48:45;23.70;91.30
51867;DHT22;52862;52.504;13.480;2023-07-09T05:51:11;23.90;91.20
51867;DHT22;52862;52.504;13.480;2023-07-09T05:53:38;23.90;91.10
51867;DHT22;52862;52.504;13.480;2023-07-09T05:56:06;24.10;90.50
51867;DHT22;52862;52.504;13.480;2023-07-09T05:58:33;24.10;90.40
51867;DHT22;52862;52.504;13.480;2023-07-09T06:01:00;24.20;90.20
51867;DHT22;52862;52.504;13.480;2023-07-09T06:03:28;24.40;90.80
51867;DHT22;52862;52.504;13.480;2023-07-09T06:05:56;24.50;90.30
51867;DHT22;52862;52.504;13.480;2023-07-09T06:08:24;24.50;90.50
51867;DHT22;52862;52.504;13.480;2023-07-09T06:10:53;24.60;90.30
51867;DHT22;52862;52.504;13.480;2023-07-09T06:13:22;24.80;89.30
51867;DHT22;52862;52.504;13.480;2023-07-09T06:15:49;24.90;88.70
51867;DHT22;52862;52.504;13.480;2023-07-09T06:18:17;25.00;87.70
51867;DHT22;52862;52.504;13.480;2023-07-09T06:20:47;25.00;87.20
51867;DHT22;52862;52.504;13.480;2023-07-09T06:23:18;25.10;87.50
51867;DHT22;52862;52.504;13.480;2023-07-09T06:25:47;25.20;87.50
51867;DHT22;52862;52.504;13.480;2023-07-09T06:28:17;25.30;86.70
51867;DHT22;52862;52.504;13.480;2023-07-09T06:30:46;25.40;86.50
51867;DHT22;52862;52.504;13.480;2023-07-09T06:33:14;25.40;86.30
51867;DHT22;52862;52.504;13.480;2023-07-09T06:35:46;25.60;85.90
51867;DHT22;52862;52.504;13.480;2023-07-09T06:38:21;25.70;86.00
51867;DHT22;52862;52.504;13.480;2023-07-09T06:40:49;25.80;85.50
51867;DHT22;52862;52.504;13.480;2023-07-09T06:43:16;25.90;85.80
51867;DHT22;52862;52.504;13.480;2023-07-09T06:45:52;26.00;85.60
51867;DHT22;52862;52.504;13.480;2023-07-09T06:48:19;26.00;85.40
51867;DHT22;52862;52.504;13.480;2023-07-09T06:50:46;26.10;85.00
51867;DHT22;52862;52.504;13.480;2023-07-09T06:53:13;26.30;85.30
51867;DHT22;52862;52.504;13.480;2023-07-09T06:55:40;26.10;84.00
51867;DHT22;52862;52.504;13.480;2023-07-09T06:58:07;26.00;84.60
51867;DHT22;52862;52.504;13.480;2023-07-09T07:00:35;26.00;84.80
51867;DHT22;52862;52.504;13.480;2023-07-09T07:03:03;26.00;85.20
51867;DHT22;52862;52.504;13.480;2023-07-09T07:05:30;26.20;85.20
51867;DHT22;52862;52.504;13.480;2023-07-09T07:07:57;26.40;84.60
51867;DHT22;52862;52.504;13.480;2023-07-09T07:10:24;26.60;84.60
51867;DHT22;52862;52.504;13.480;2023-07-09T07:12:54;26.50;83.80
51867;DHT22;52862;52.504;13.480;2023-07-09T07:15:21;26.50;84.50
51867;DHT22;52862;52.504;13.480;2023-07-09T07:17:49;26.60;84.40
51867;DHT22;52862;52.504;13.480;2023-07-09T07:20:22;26.60;84.00
51867;DHT22;52862;52.504;13.480;2023-07-09T07:22:51;26.80;84.30
51867;DHT22;52862;52.504;13.480;2023-07-09T07:25:18;26.80;83.90
51867;DHT22;52862;52.504;13.480;2023-07-09T07:27:45;26.60;84.10
51867;DHT22;52862;52.504;13.480;2023-07-09T07:30:14;26.70;84.50
51867;DHT22;52862;52.504;13.480;2023-07-09T07:32:44;26.70;84.40
51867;DHT22;52862;52.504;13.480;2023-07-09T07:35:12;26.80;84.90
51867;DHT22;52862;52.504;13.480;2023-07-09T07:37:40;26.90;84.10
51867;DHT22;52862;52.504;13.480;2023-07-09T07:40:08;27.00;83.90
51867;DHT22;52862;52.504;13.480;2023-07-09T07:42:36;27.00;84.30
51867;DHT22;52862;52.504;13.480;2023-07-09T07:45:04;27.10;83.90
51867;DHT22;52862;52.504;13.480;2023-07-09T07:47:31;27.30;83.60
51867;DHT22;52862;52.504;13.480;2023-07-09T07:50:03;27.40;84.10
51867;DHT22;52862;52.504;13.480;2023-07-09T07:52:30;27.40;83.50
51867;DHT22;52862;52.504;13.480;2023-07-09T07:54:58;27.60;84.00
51867;DHT22;52862;52.504;13.480;2023-07-09T07:57:25;27.70;84.10
51867;DHT22;52862;52.504;13.480;2023-07-09T07:59:52;27.80;83.70
51867;DHT22;52862;52.504;13.480;2023-07-09T08:02:19;28.00;84.10
51867;DHT22;52862;52.504;13.480;2023-07-09T08:04:46;28.10;84.50
51867;DHT22;52862;52.504;13.480;2023-07-09T08:07:13;28.00;82.40
51867;DHT22;52862;52.504;13.480;2023-07-09T08:09:40;28.10;82.10
51867;DHT22;52862;52.504;13.480;2023-07-09T08:12:09;29.60;82.70
51867;DHT22;52862;52.504;13.480;2023-07-09T08:14:44;28.20;81.70
51867;DHT22;52862;52.504;13.480;2023-07-09T08:17:11;28.30;81.60
51867;DHT22;52862;52.504;13.480;2023-07-09T08:19:45;28.40;82.90
51867;DHT22;52862;52.504;13.480;2023-07-09T08:22:13;28.50;81.30
51867;DHT22;52862;52.504;13.480;2023-07-09T08:24:40;28.50;80.50
51867;DHT22;52862;52.504;13.480;2023-07-09T08:27:08;28.70;80.50
51867;DHT22;52862;52.504;13.480;2023-07-09T08:29:36;28.80;80.40
51867;DHT22;52862;52.504;13.480;2023-07-09T08:32:03;28.70;79.70
51867;DHT22;52862;52.504;13.480;2023-07-09T08:34:30;28.90;79.80
51867;DHT22;52862;52.504;13.480;2023-07-09T08:36:57;29.10;80.30
51867;DHT22;52862;52.504;13.480;2023-07-09T08:39:24;28.90;79.90
51867;DHT22;52862;52.504;13.480;2023-07-09T08:41:56;28.90;79.80
51867;DHT22;52862;52.504;13.480;2023-07-09T08:44:58;28.90;78.80
51867;DHT22;52862;52.504;13.480;2023-07-09T08:47:33;28.80;79.40
51867;DHT22;52862;52.504;13.480;2023-07-09T08:50:04;29.00;79.20
51867;DHT22;52862;52.504;13.480;2023-07-09T08:52:35;29.10;79.30
51867;DHT22;52862;52.504;13.480;2023-07-09T08:55:06;29.30;77.50
51867;DHT22;52862;52.504;13.480;2023-07-09T08:57:36;29.30;78.30
51867;DHT22;52862;52.504;13.480;2023-07-09T09:00:13;29.20;76.20
51867;DHT22;52862;52.504;13.480;2023-07-09T09:02:46;29.20;78.50
51867;DHT22;52862;52.504;13.480;2023-07-09T09:05:19;29.20;75.80
51867;DHT22;52862;52.504;13.480;2023-07-09T09:07:55;29.30;77.70
51867;DHT22;52862;52.504;13.480;2023-07-09T09:10:29;29.10;76.40
51867;DHT22;52862;52.504;13.480;2023-07-09T09:13:09;29.30;78.70
51867;DHT22;52862;52.504;13.480;2023-07-09T09:15:39;29.40;76.00
51867;DHT22;52862;52.504;13.480;2023-07-09T09:18:19;29.50;73.50
51867;DHT22;52862;52.504;13.480;2023-07-09T09:20:51;29.50;71.20
51867;DHT22;52862;52.504;13.480;2023-07-09T09:23:19;29.50;71.90
51867;DHT22;52862;52.504;13.480;2023-07-09T09:25:52;29.50;74.10
51867;DHT22;52862;52.504;13.480;2023-07-09T09:28:35;29.60;72.50
51867;DHT22;52862;52.504;13.480;2023-07-09T09:31:03;29.80;72.00
51867;DHT22;52862;52.504;13.480;2023-07-09T09:33:37;30.00;72.80
51867;DHT22;52862;52.504;13.480;2023-07-09T09:36:15;30.00;71.80
51867;DHT22;52862;52.504;13.480;2023-07-09T09:38:42;30.10;71.00
51867;DHT22;52862;52.504;13.480;2023-07-09T09:41:13;30.20;70.30
51867;DHT22;52862;52.504;13.480;2023-07-09T09:43:42;30.10;69.30
51867;DHT22;52862;52.504;13.480;2023-07-09T09:46:17;30.00;67.60
51867;DHT22;52862;52.504;13.480;2023-07-09T09:48:45;29.70;69.40
51867;DHT22;52862;52.504;13.480;2023-07-09T09:51:13;29.80;67.70
51867;DHT22;52862;52.504;13.480;2023-07-09T09:53:44;29.80;68.40
51867;DHT22;52862;52.504;13.480;2023-07-09T09:56:17;29.70;68.50
51867;DHT22;52862;52.504;13.480;2023-07-09T09:58:44;29.90;68.40
51867;DHT22;52862;52.504;13.480;2023-07-09T10:01:14;30.10;68.20
51867;DHT22;52862;52.504;13.480;2023-07-09T10:03:42;30.20;68.70
51867;DHT22;52862;52.504;13.480;2023-07-09T10:06:15;30.30;68.60
51867;DHT22;52862;52.504;13.480;2023-07-09T10:08:50;30.40;68.00
51867;DHT22;52862;52.504;13.480;2023-07-09T10:11:25;30.60;67.70
51867;DHT22;52862;52.504;13.480;2023-07-09T10:13:56;30.50;66.90
51867;DHT22;52862;52.504;13.480;2023-07-09T10:16:30;30.60;68.10
51867;DHT22;52862;52.504;13.480;2023-07-09T10:19:12;30.60;67.90
51867;DHT22;52862;52.504;13.480;2023-07-09T10:21:46;30.60;67.50
51867;DHT22;52862;52.504;13.480;2023-07-09T10:24:28;30.70;67.50
51867;DHT22;52862;52.504;13.480;2023-07-09T10:27:03;30.80;67.00
51867;DHT22;52862;52.504;13.480;2023-07-09T10:29:46;30.80;65.70
51867;DHT22;52862;52.504;13.480;2023-07-09T10:32:27;30.50;67.40
51867;DHT22;52862;52.504;13.480;2023-07-09T10:35:03;30.40;67.70
51867;DHT22;52862;52.504;13.480;2023-07-09T10:37:47;30.60;67.60
51867;DHT22;52862;52.504;13.480;2023-07-09T10:40:24;30.60;66.50
51867;DHT22;52862;52.504;13.480;2023-07-09T10:42:57;30.80;67.90
51867;DHT22;52862;52.504;13.480;2023-07-09T10:45:28;30.90;68.20
51867;DHT22;52862;52.504;13.480;2023-07-09T10:48:00;31.20;67.70
51867;DHT22;52862;52.504;13.480;2023-07-09T10:50:31;31.00;67.00
51867;DHT22;52862;52.504;13.480;2023-07-09T10:53:04;31.10;67.20
51867;DHT22;52862;52.504;13.480;2023-07-09T10:55:41;31.10;67.00
51867;DHT22;52862;52.504;13.480;2023-07-09T10:58:24;31.20;67.60
51867;DHT22;52862;52.504;13.480;2023-07-09T11:00:54;31.30;66.60
51867;DHT22;52862;52.504;13.480;2023-07-09T11:03:35;31.30;68.10
51867;DHT22;52862;52.504;13.480;2023-07-09T11:06:14;31.50;66.00
51867;DHT22;52862;52.504;13.480;2023-07-09T11:08:43;31.60;65.80
51867;DHT22;52862;52.504;13.480;2023-07-09T11:11:15;31.70;66.20
51867;DHT22;52862;52.504;13.480;2023-07-09T11:13:46;31.90;66.80
51867;DHT22;52862;52.504;13.480;2023-07-09T11:16:26;31.90;66.90
51867;DHT22;52862;52.504;13.480;2023-07-09T11:18:57;31.90;68.50
51867;DHT22;52862;52.504;13.480;2023-07-09T11:21:25;31.90;68.40
51867;DHT22;52862;52.504;13.480;2023-07-09T11:23:53;31.90;67.30
51867;DHT22;52862;52.504;13.480;2023-07-09T11:26:25;32.00;66.70
51867;DHT22;52862;52.504;13.480;2023-07-09T11:28:54;32.20;66.30
51867;DHT22;52862;52.504;13.480;2023-07-09T11:31:24;32.20;66.80
51867;DHT22;52862;52.504;13.480;2023-07-09T11:34:01;32.20;66.40
51867;DHT22;52862;52.504;13.480;2023-07-09T11:36:30;32.40;65.80
51867;DHT22;52862;52.504;13.480;2023-07-09T11:38:57;32.40;66.20
51867;DHT22;52862;52.504;13.480;2023-07-09T11:41:39;32.40;65.70
51867;DHT22;52862;52.504;13.480;2023-07-09T11:44:14;32.50;64.50
51867;DHT22;52862;52.504;13.480;2023-07-09T11:49:48;33.00;64.60
51867;DHT22;52862;52.504;13.480;2023-07-09T11:52:20;33.00;63.10
51867;DHT22;52862;52.504;13.480;2023-07-09T11:54:48;32.80;62.90
51867;DHT22;52862;52.504;13.480;2023-07-09T11:57:18;33.00;62.80
51867;DHT22;52862;52.504;13.480;2023-07-09T11:59:45;33.00;62.80
51867;DHT22;52862;52.504;13.480;2023-07-09T12:02:16;33.00;64.10
51867;DHT22;52862;52.504;13.480;2023-07-09T12:04:48;33.00;62.00
51867;DHT22;52862;52.504;13.480;2023-07-09T12:07:16;33.20;59.80
51867;DHT22;52862;52.504;13.480;2023-07-09T12:09:47;33.20;62.60
51867;DHT22;52862;52.504;13.480;2023-07-09T12:12:19;33.10;62.10
51867;DHT22;52862;52.504;13.480;2023-07-09T12:14:46;33.50;62.60
51867;DHT22;52862;52.504;13.480;2023-07-09T12:17:13;33.70;61.80
51867;DHT22;52862;52.504;13.480;2023-07-09T12:19:40;34.00;62.50
51867;DHT22;52862;52.504;13.480;2023-07-09T12:22:14;34.10;61.30
51867;DHT22;52862;52.504;13.480;2023-07-09T12:24:43;34.20;61.80
51867;DHT22;52862;52.504;13.480;2023-07-09T12:27:22;34.30;61.80
51867;DHT22;52862;52.504;13.480;2023-07-09T12:29:52;34.40;60.90
51867;DHT22;52862;52.504;13.480;2023-07-09T12:32:19;34.30;59.10
51867;DHT22;52862;52.504;13.480;2023-07-09T12:34:50;34.30;59.00
51867;DHT22;52862;52.504;13.480;2023-07-09T12:37:20;34.00;58.70
51867;DHT22;52862;52.504;13.480;2023-07-09T12:39:49;34.00;59.40
51867;DHT22;52862;52.504;13.480;2023-07-09T12:42:20;34.10;58.50
51867;DHT22;52862;52.504;13.480;2023-07-09T12:44:50;34.30;58.90
51867;DHT22;52862;52.504;13.480;2023-07-09T12:47:18;34.30;59.20
51867;DHT22;52862;52.504;13.480;2023-07-09T12:49:46;34.30;58.10
51867;DHT22;52862;52.504;13.480;2023-07-09T12:52:20;34.70;59.30
51867;DHT22;52862;52.504;13.480;2023-07-09T12:54:56;34.70;59.70
51867;DHT22;52862;52.504;13.480;2023-07-09T12:57:24;34.80;58.70
51867;DHT22;52862;52.504;13.480;2023-07-09T12:59:51;34.90;57.80
51867;DHT22;52862;52.504;13.480;2023-07-09T13:02:19;35.00;56.80
51867;DHT22;52862;52.504;13.480;2023-07-09T13:04:48;35.30;57.80
51867;DHT22;52862;52.504;13.480;2023-07-09T13:07:29;35.40;58.30
51867;DHT22;52862;52.504;13.480;2023-07-09T13:09:56;35.40;56.90
51867;DHT22;52862;52.504;13.480;2023-07-09T13:12:30;35.50;56.50
51867;DHT22;52862;52.504;13.480;2023-07-09T13:14:58;35.50;57.10
51867;DHT22;52862;52.504;13.480;2023-07-09T13:17:29;35.50;57.80
51867;DHT22;52862;52.504;13.480;2023-07-09T13:19:56;35.30;58.30
51867;DHT22;52862;52.504;13.480;2023-07-09T13:22:24;35.50;56.70
51867;DHT22;52862;52.504;13.480;2023-07-09T13:24:51;35.80;57.00
51867;DHT22;52862;52.504;13.480;2023-07-09T13:27:18;36.20;57.10
51867;DHT22;52862;52.504;13.480;2023-07-09T13:29:45;36.20;57.10
51867;DHT22;52862;52.504;13.480;2023-07-09T13:32:14;36.00;56.60
51867;DHT22;52862;52.504;13.480;2023-07-09T13:34:41;35.90;56.60
51867;DHT22;52862;52.504;13.480;2023-07-09T13:37:11;36.00;56.40
51867;DHT22;52862;52.504;13.480;2023-07-09T13:39:39;36.20;57.50
51867;DHT22;52862;52.504;13.480;2023-07-09T13:42:10;36.30;57.20
51867;DHT22;52862;52.504;13.480;2023-07-09T13:44:39;36.20;55.60
51867;DHT22;52862;52.504;13.480;2023-07-09T13:47:12;36.40;56.40
51867;DHT22;52862;52.504;13.480;2023-07-09T13:49:43;36.70;55.90
51867;DHT22;52862;52.504;13.480;2023-07-09T13:52:16;37.00;55.40
51867;DHT22;52862;52.504;13.480;2023-07-09T13:54:44;37.10;56.10
51867;DHT22;52862;52.504;13.480;2023-07-09T13:57:15;36.90;55.10
51867;DHT22;52862;52.504;13.480;2023-07-09T13:59:43;37.00;55.40
51867;DHT22;52862;52.504;13.480;2023-07-09T14:02:20;36.70;55.20
51867;DHT22;52862;52.504;13.480;2023-07-09T14:04:49;36.40;53.50
51867;DHT22;52862;52.504;13.480;2023-07-09T14:07:26;36.30;54.10
51867;DHT22;52862;52.504;13.480;2023-07-09T14:09:54;35.80;54.80
51867;DHT22;52862;52.504;13.480;2023-07-09T14:12:21;35.70;54.90
51867;DHT22;52862;52.504;13.480;2023-07-09T14:14:49;35.90;54.20
51867;DHT22;52862;52.504;13.480;2023-07-09T14:17:16;36.30;54.60
51867;DHT22;52862;52.504;13.480;2023-07-09T14:19:43;36.90;54.00
51867;DHT22;52862;52.504;13.480;2023-07-09T14:22:25;38.30;51.80
51867;DHT22;52862;52.504;13.480;2023-07-09T14:24:53;40.30;51.80
51867;DHT22;52862;52.504;13.480;2023-07-09T14:27:20;42.30;48.10
51867;DHT22;52862;52.504;13.480;2023-07-09T14:29:47;42.00;48.20
51867;DHT22;52862;52.504;13.480;2023-07-09T14:32:32;43.10;48.80
51867;DHT22;52862;52.504;13.480;2023-07-09T14:34:59;43.90;46.10
51867;DHT22;52862;52.504;13.480;2023-07-09T14:37:27;43.90;45.70
51867;DHT22;52862;52.504;13.480;2023-07-09T14:39:55;44.30;45.80
51867;DHT22;52862;52.504;13.480;2023-07-09T14:42:21;43.40;44.30
51867;DHT22;52862;52.504;13.480;2023-07-09T14:44:49;42.50;47.10
51867;DHT22;52862;52.504;13.480;2023-07-09T14:47:17;43.20;46.00
51867;DHT22;52862;52.504;13.480;2023-07-09T14:49:44;44.00;44.70
51867;DHT22;52862;52.504;13.480;2023-07-09T14:52:13;44.60;44.20
51867;DHT22;52862;52.504;13.480;2023-07-09T14:54:41;45.10;44.40
51867;DHT22;52862;52.504;13.480;2023-07-09T14:57:17;45.60;42.50
51867;DHT22;52862;52.504;13.480;2023-07-09T14:59:44;45.00;43.00
51867;DHT22;52862;52.504;13.480;2023-07-09T15:02:23;45.40;42.50
51867;DHT22;52862;52.504;13.480;2023-07-09T15:04:51;45.40;43.50
51867;DHT22;52862;52.504;13.480;2023-07-09T15:07:18;45.80;43.10
51867;DHT22;52862;52.504;13.480;2023-07-09T15:09:45;46.20;41.90
51867;DHT22;52862;52.504;13.480;2023-07-09T15:12:16;46.30;42.10
51867;DHT22;52862;52.504;13.480;2023-07-09T15:14:44;47.00;41.60
51867;DHT22;52862;52.504;13.480;2023-07-09T15:17:11;46.80;41.40
51867;DHT22;52862;52.504;13.480;2023-07-09T15:19:38;46.90;41.70
51867;DHT22;52862;52.504;13.480;2023-07-09T15:22:13;46.50;41.90
51867;DHT22;52862;52.504;13.480;2023-07-09T15:24:44;46.10;42.80
51867;DHT22;52862;52.504;13.480;2023-07-09T15:27:12;46.00;42.50
51867;DHT22;52862;52.504;13.480;2023-07-09T15:29:39;45.80;41.70
51867;DHT22;52862;52.504;13.480;2023-07-09T15:32:06;45.60;41.50